createdAt,value
2018-06-01T00:00:40.323Z,18.68
2018-06-01T00:03:06.686Z,18.55
2018-06-01T00:05:33.012Z,18.57
2018-06-01T00:07:59.398Z,18.49
2018-06-01T00:10:25.754Z,18.51
2018-06-01T00:12:52.190Z,18.74
2018-06-01T00:15:18.622Z,18.65
2018-06-01T00:17:44.970Z,18.45
2018-06-01T00:20:11.389Z,18.49
2018-06-01T00:22:37.718Z,18.57
2018-06-01T00:25:04.073Z,18.63
2018-06-01T00:27:30.461Z,18.61
2018-06-01T00:29:56.812Z,18.55
2018-06-01T00:32:23.152Z,18.49
2018-06-01T00:34:49.511Z,18.46
2018-06-01T00:37:15.820Z,18.48
2018-06-01T00:39:42.139Z,18.23
2018-06-01T00:42:08.506Z,18.11
2018-06-01T00:44:35.712Z,18.11
2018-06-01T00:47:02.088Z,17.88
2018-06-01T00:49:28.520Z,17.88
2018-06-01T00:51:54.921Z,18.09
2018-06-01T00:54:21.279Z,18.09
2018-06-01T00:56:47.619Z,18.13
2018-06-01T00:59:13.993Z,18.08
2018-06-01T01:01:40.324Z,18.03
2018-06-01T01:04:06.705Z,18.08
2018-06-01T01:06:33.053Z,18.03
2018-06-01T01:08:59.430Z,17.84
2018-06-01T01:11:25.762Z,17.95
2018-06-01T01:13:52.116Z,18.05
2018-06-01T01:16:18.498Z,17.83
2018-06-01T01:18:44.900Z,17.85
2018-06-01T01:21:11.212Z,17.86
2018-06-01T01:23:37.629Z,17.89
2018-06-01T01:26:03.982Z,17.91
2018-06-01T01:28:30.373Z,17.59
2018-06-01T01:30:56.807Z,17.51
2018-06-01T01:33:23.173Z,17.71
2018-06-01T01:35:49.534Z,17.64
2018-06-01T01:38:16.826Z,17.69
2018-06-01T01:40:43.293Z,17.49
2018-06-01T01:43:09.564Z,17.54
2018-06-01T01:45:35.930Z,17.95
2018-06-01T01:48:02.374Z,17.99
2018-06-01T01:50:28.715Z,17.90
2018-06-01T01:52:55.074Z,17.90
2018-06-01T01:55:21.429Z,17.77
2018-06-01T01:57:47.745Z,17.95
2018-06-01T02:00:14.241Z,17.98
2018-06-01T02:02:40.629Z,17.98
2018-06-01T02:05:06.984Z,17.95
2018-06-01T02:07:33.392Z,17.99
2018-06-01T02:09:59.730Z,18.04
2018-06-01T02:12:26.100Z,17.95
2018-06-01T02:14:52.534Z,18.06
2018-06-01T02:17:18.906Z,18.06
2018-06-01T02:19:45.271Z,18.06
2018-06-01T02:22:11.695Z,18.07
2018-06-01T02:24:38.052Z,18.03
2018-06-01T02:27:04.413Z,18.17
2018-06-01T02:29:30.808Z,18.30
2018-06-01T02:31:57.163Z,18.35
2018-06-01T02:34:23.506Z,18.16
2018-06-01T02:36:49.923Z,18.32
2018-06-01T02:39:16.253Z,18.29
2018-06-01T02:41:42.687Z,18.51
2018-06-01T02:44:09.224Z,18.56
2018-06-01T02:46:35.607Z,18.86
2018-06-01T02:49:02.024Z,18.71
2018-06-01T02:51:28.404Z,18.58
2018-06-01T02:53:54.783Z,18.62
2018-06-01T02:56:21.141Z,18.45
2018-06-01T02:58:47.678Z,18.57
2018-06-01T03:01:14.062Z,18.55
2018-06-01T03:03:40.398Z,18.39
2018-06-01T03:06:06.771Z,18.49
2018-06-01T03:08:33.100Z,18.52
2018-06-01T03:11:00.065Z,18.62
2018-06-01T03:13:26.406Z,18.46
2018-06-01T03:15:53.698Z,18.03
2018-06-01T03:18:20.049Z,18.01
2018-06-01T03:20:46.365Z,18.06
2018-06-01T03:23:12.786Z,18.32
2018-06-01T03:25:39.129Z,18.34
2018-06-01T03:28:05.462Z,18.33
2018-06-01T03:30:31.844Z,18.25
2018-06-01T03:32:58.234Z,18.28
2018-06-01T03:35:24.568Z,18.31
2018-06-01T03:37:50.965Z,18.06
2018-06-01T03:40:17.399Z,18.14
2018-06-01T03:42:43.746Z,18.19
2018-06-01T03:45:10.261Z,18.35
2018-06-01T03:47:36.632Z,18.10
2018-06-01T03:50:03.025Z,18.09
2018-06-01T03:52:29.439Z,18.26
2018-06-01T03:54:55.778Z,18.22
2018-06-01T03:57:22.150Z,18.30
2018-06-01T03:59:48.561Z,18.43
2018-06-01T04:02:14.892Z,18.57
2018-06-01T04:04:42.106Z,18.47
2018-06-01T04:07:08.483Z,18.58
2018-06-01T04:09:34.827Z,18.62
2018-06-01T04:12:01.240Z,18.80
2018-06-01T04:14:27.609Z,19.03
2018-06-01T04:16:54.215Z,19.17
2018-06-01T04:19:20.582Z,19.42
2018-06-01T04:21:46.975Z,19.60
2018-06-01T04:24:14.293Z,19.80
2018-06-01T04:26:40.644Z,19.96
2018-06-01T04:29:07.017Z,20.16
2018-06-01T04:31:33.631Z,20.21
2018-06-01T04:33:59.985Z,20.39
2018-06-01T04:36:26.417Z,20.51
2018-06-01T04:38:52.929Z,20.70
2018-06-01T04:41:19.487Z,20.91
2018-06-01T04:43:45.864Z,20.94
2018-06-01T04:46:12.216Z,21.05
2018-06-01T04:48:38.581Z,21.12
2018-06-01T04:51:04.965Z,21.12
2018-06-01T04:53:31.296Z,21.24
2018-06-01T04:55:57.629Z,21.32
2018-06-01T04:58:24.030Z,21.37
2018-06-01T05:00:50.408Z,21.43
2018-06-01T05:03:16.757Z,21.45
2018-06-01T05:05:43.246Z,21.50
2018-06-01T05:08:09.645Z,21.59
2018-06-01T05:10:36.024Z,21.64
2018-06-01T05:13:02.415Z,21.68
2018-06-01T05:15:28.821Z,21.69
2018-06-01T05:17:55.169Z,21.72
2018-06-01T05:20:21.556Z,21.75
2018-06-01T05:22:47.937Z,21.92
2018-06-01T05:25:14.376Z,21.92
2018-06-01T05:27:40.746Z,22.04
2018-06-01T05:30:07.214Z,22.12
2018-06-01T05:32:33.594Z,22.30
2018-06-01T05:35:00.076Z,22.25
2018-06-01T05:37:27.053Z,22.31
2018-06-01T05:39:53.567Z,22.35
2018-06-01T05:42:20.042Z,22.51
2018-06-01T05:44:46.410Z,22.64
2018-06-01T05:47:12.794Z,22.63
2018-06-01T05:49:39.182Z,22.76
2018-06-01T05:52:05.539Z,22.96
2018-06-01T05:54:31.896Z,22.98
2018-06-01T05:56:58.241Z,22.86
2018-06-01T05:59:24.632Z,22.90
2018-06-01T06:01:51.042Z,23.03
2018-06-01T06:04:17.387Z,23.14
2018-06-01T06:06:43.718Z,23.11
2018-06-01T06:09:10.152Z,23.19
2018-06-01T06:11:36.690Z,23.32
2018-06-01T06:14:03.019Z,23.29
2018-06-01T06:16:29.408Z,23.38
2018-06-01T06:18:55.772Z,23.46
2018-06-01T06:21:22.218Z,23.53
2018-06-01T06:23:48.585Z,23.63
2018-06-01T06:26:15.082Z,23.72
2018-06-01T06:28:41.661Z,23.81
2018-06-01T06:31:08.049Z,23.76
2018-06-01T06:33:34.425Z,23.88
2018-06-01T06:36:00.789Z,24.02
2018-06-01T06:38:27.125Z,24.08
2018-06-01T06:40:53.520Z,24.11
2018-06-01T06:43:19.915Z,24.22
2018-06-01T06:45:46.486Z,24.34
2018-06-01T06:48:12.829Z,24.46
2018-06-01T06:50:39.216Z,24.51
2018-06-01T06:53:05.584Z,24.59
2018-06-01T06:55:31.938Z,24.67
2018-06-01T06:57:58.414Z,24.77
2018-06-01T07:00:24.744Z,24.84
2018-06-01T07:02:51.121Z,24.85
2018-06-01T07:05:17.480Z,24.90
2018-06-01T07:07:43.878Z,24.90
2018-06-01T07:10:10.233Z,24.93
2018-06-01T07:12:36.616Z,24.98
2018-06-01T07:15:03.015Z,25.00
2018-06-01T07:17:29.402Z,25.02
2018-06-01T07:19:55.778Z,25.03
2018-06-01T07:22:22.146Z,25.12
2018-06-01T07:24:49.047Z,25.18
2018-06-01T07:27:15.398Z,25.24
2018-06-01T07:29:41.741Z,25.23
2018-06-01T07:32:08.091Z,25.33
2018-06-01T07:34:34.457Z,25.50
2018-06-01T07:37:00.843Z,25.60
2018-06-01T07:39:27.376Z,25.67
2018-06-01T07:41:53.908Z,25.69
2018-06-01T07:44:20.346Z,25.76
2018-06-01T07:46:46.724Z,25.89
2018-06-01T07:49:13.341Z,26.07
2018-06-01T07:51:39.707Z,26.10
2018-06-01T07:54:06.070Z,26.18
2018-06-01T07:56:32.407Z,26.17
2018-06-01T07:58:58.772Z,26.21
2018-06-01T08:01:25.148Z,26.35
2018-06-01T08:03:51.665Z,26.48
2018-06-01T08:06:18.060Z,26.53
2018-06-01T08:08:44.626Z,26.67
2018-06-01T08:11:10.983Z,26.80
2018-06-01T08:13:37.334Z,26.87
2018-06-01T08:16:03.771Z,26.88
2018-06-01T08:18:30.280Z,26.93
2018-06-01T08:20:56.680Z,27.00
2018-06-01T08:23:23.197Z,27.05
2018-06-01T08:25:49.541Z,27.08
2018-06-01T08:28:15.893Z,27.14
2018-06-01T08:30:42.271Z,27.34
2018-06-01T08:33:08.660Z,27.41
2018-06-01T08:35:35.192Z,27.39
2018-06-01T08:38:01.604Z,27.45
2018-06-01T08:40:27.977Z,27.41
2018-06-01T08:42:54.320Z,27.35
2018-06-01T08:45:20.666Z,27.41
2018-06-01T08:47:47.039Z,27.49
2018-06-01T08:50:13.547Z,27.62
2018-06-01T08:52:39.889Z,27.57
2018-06-01T08:55:06.267Z,27.65
2018-06-01T08:57:32.662Z,27.78
2018-06-01T08:59:59.001Z,27.76
2018-06-01T09:02:25.405Z,27.79
2018-06-01T09:04:51.800Z,27.90
2018-06-01T09:07:18.233Z,27.93
2018-06-01T09:09:44.624Z,28.04
2018-06-01T09:12:10.961Z,28.27
2018-06-01T09:14:37.472Z,28.32
2018-06-01T09:17:03.943Z,28.41
2018-06-01T09:19:30.290Z,28.42
2018-06-01T09:21:56.669Z,28.35
2018-06-01T09:24:23.106Z,28.39
2018-06-01T09:26:49.568Z,28.36
2018-06-01T09:29:15.936Z,28.36
2018-06-01T09:31:42.962Z,28.37
2018-06-01T09:34:09.351Z,28.52
2018-06-01T09:36:35.725Z,28.52
2018-06-01T09:39:02.180Z,28.54
2018-06-01T09:41:28.742Z,28.66
2018-06-01T09:43:55.111Z,28.71
2018-06-01T09:46:21.464Z,28.65
2018-06-01T09:48:48.744Z,28.71
2018-06-01T09:51:15.227Z,28.80
2018-06-01T09:53:41.573Z,28.83
2018-06-01T09:56:08.058Z,28.80
2018-06-01T09:58:34.425Z,28.78
2018-06-01T10:01:01.029Z,28.71
2018-06-01T10:03:27.408Z,28.74
2018-06-01T10:05:53.842Z,28.79
2018-06-01T10:08:20.411Z,28.78
2018-06-01T10:10:46.794Z,28.82
2018-06-01T10:13:13.266Z,28.95
2018-06-01T10:15:39.770Z,29.15
2018-06-01T10:18:06.145Z,29.20
2018-06-01T10:20:34.588Z,29.34
2018-06-01T10:23:01.032Z,29.39
2018-06-01T10:25:27.386Z,29.25
2018-06-01T10:27:53.808Z,29.21
2018-06-01T10:30:20.183Z,29.38
2018-06-01T10:32:46.522Z,29.47
2018-06-01T10:35:13.544Z,29.37
2018-06-01T10:37:39.934Z,29.49
2018-06-01T10:40:06.282Z,29.56
2018-06-01T10:42:32.625Z,29.63
2018-06-01T10:44:58.988Z,29.67
2018-06-01T10:47:25.374Z,29.59
2018-06-01T10:49:51.727Z,29.56
2018-06-01T10:52:18.076Z,29.35
2018-06-01T10:54:44.428Z,29.52
2018-06-01T10:57:10.792Z,29.41
2018-06-01T10:59:37.761Z,29.43
2018-06-01T11:02:04.178Z,29.47
2018-06-01T11:04:30.568Z,29.59
2018-06-01T11:06:56.943Z,29.69
2018-06-01T11:09:23.290Z,29.65
2018-06-01T11:11:49.633Z,29.69
2018-06-01T11:14:16.022Z,29.55
2018-06-01T11:16:42.382Z,29.62
2018-06-01T11:19:08.711Z,29.59
2018-06-01T11:21:35.383Z,29.73
2018-06-01T11:24:01.714Z,29.77
2018-06-01T11:26:28.097Z,29.71
2018-06-01T11:28:54.454Z,29.78
2018-06-01T11:31:20.828Z,29.76
2018-06-01T11:34:12.352Z,29.78
2018-06-01T11:36:41.387Z,29.74
2018-06-01T11:39:08.005Z,29.63
2018-06-01T11:41:34.414Z,29.49
2018-06-01T11:44:00.764Z,29.51
2018-06-01T11:46:27.126Z,29.54
2018-06-01T11:48:53.489Z,29.47
2018-06-01T11:51:19.945Z,29.59
2018-06-01T11:53:46.264Z,29.65
2018-06-01T11:56:12.633Z,29.59
2018-06-01T11:58:39.030Z,29.67
2018-06-01T12:01:05.410Z,29.74
2018-06-01T12:03:31.776Z,29.69
2018-06-01T12:05:58.178Z,29.74
2018-06-01T12:08:24.534Z,29.77
2018-06-01T12:10:51.088Z,29.72
2018-06-01T12:13:17.439Z,29.78
2018-06-01T12:15:43.781Z,29.71
2018-06-01T12:18:10.144Z,29.72
2018-06-01T12:20:36.531Z,29.79
2018-06-01T12:23:03.083Z,29.84
2018-06-01T12:25:29.451Z,29.93
2018-06-01T12:27:55.859Z,29.88
2018-06-01T12:30:22.332Z,29.93
2018-06-01T12:32:48.684Z,29.88
2018-06-01T12:35:15.018Z,29.99
2018-06-01T12:37:42.387Z,29.96
2018-06-01T12:40:08.734Z,29.96
2018-06-01T12:42:35.083Z,30.05
2018-06-01T12:45:01.474Z,30.10
2018-06-01T12:47:27.810Z,30.12
2018-06-01T12:49:54.159Z,30.14
2018-06-01T12:52:20.522Z,30.14
2018-06-01T12:54:46.874Z,30.12
2018-06-01T12:57:13.229Z,30.22
2018-06-01T12:59:39.690Z,30.22
2018-06-01T13:02:06.075Z,30.22
2018-06-01T13:04:32.467Z,30.19
2018-06-01T13:06:58.960Z,30.13
2018-06-01T13:09:25.447Z,30.09
2018-06-01T13:11:51.851Z,30.14
2018-06-01T13:14:18.209Z,30.09
2018-06-01T13:16:44.551Z,30.15
2018-06-01T13:19:11.060Z,30.14
2018-06-01T13:21:37.461Z,30.20
2018-06-01T13:24:04.311Z,30.36
2018-06-01T13:26:30.640Z,30.45
2018-06-01T13:28:57.003Z,30.46
2018-06-01T13:31:23.402Z,30.46
2018-06-01T13:33:49.931Z,30.53
2018-06-01T13:36:16.453Z,30.53
2018-06-01T13:38:42.881Z,30.63
2018-06-01T13:41:09.265Z,30.70
2018-06-01T13:43:35.829Z,30.59
2018-06-01T13:46:02.317Z,30.64
2018-06-01T13:48:28.898Z,30.57
2018-06-01T13:50:55.228Z,30.53
2018-06-01T13:53:21.568Z,30.39
2018-06-01T13:55:48.109Z,30.31
2018-06-01T13:58:14.465Z,30.41
2018-06-01T14:00:40.814Z,30.53
2018-06-01T14:03:07.166Z,30.24
2018-06-01T14:05:33.574Z,30.26
2018-06-01T14:08:00.034Z,30.16
2018-06-01T14:10:26.416Z,30.24
2018-06-01T14:12:52.905Z,30.19
2018-06-01T14:15:19.334Z,30.33
2018-06-01T14:17:45.918Z,30.47
2018-06-01T14:20:12.309Z,30.40
2018-06-01T14:22:38.668Z,30.35
2018-06-01T14:25:05.129Z,30.19
2018-06-01T14:27:31.473Z,30.18
2018-06-01T14:29:57.826Z,30.13
2018-06-01T14:32:24.433Z,30.21
2018-06-01T14:34:51.109Z,30.31
2018-06-01T14:37:17.509Z,30.41
2018-06-01T14:39:43.854Z,30.45
2018-06-01T14:42:10.211Z,30.42
2018-06-01T14:44:36.806Z,30.43
2018-06-01T14:47:03.219Z,30.33
2018-06-01T14:49:29.637Z,30.28
2018-06-01T14:51:55.997Z,30.27
2018-06-01T14:54:22.395Z,30.27
2018-06-01T14:56:48.915Z,30.17
2018-06-01T14:59:15.273Z,30.13
2018-06-01T15:01:41.656Z,30.06
2018-06-01T15:04:08.074Z,30.02
2018-06-01T15:06:34.467Z,29.79
2018-06-01T15:09:00.871Z,29.90
2018-06-01T15:11:27.230Z,29.93
2018-06-01T15:13:53.673Z,29.97
2018-06-01T15:16:20.028Z,29.94
2018-06-01T15:18:46.497Z,29.95
2018-06-01T15:21:12.836Z,29.74
2018-06-01T15:23:39.185Z,29.85
2018-06-01T15:26:05.513Z,29.72
2018-06-01T15:28:31.863Z,29.74
2018-06-01T15:30:58.513Z,29.65
2018-06-01T15:33:25.018Z,29.78
2018-06-01T15:35:51.349Z,29.74
2018-06-01T15:38:17.689Z,29.85
2018-06-01T15:40:44.052Z,29.99
2018-06-01T15:43:10.450Z,30.01
2018-06-01T15:45:36.833Z,30.05
2018-06-01T15:48:03.254Z,29.84
2018-06-01T15:50:29.625Z,29.87
2018-06-01T15:52:55.945Z,29.91
2018-06-01T15:55:22.287Z,29.72
2018-06-01T15:57:48.648Z,29.98
2018-06-01T16:00:15.013Z,29.95
2018-06-01T16:02:41.369Z,30.00
2018-06-01T16:05:07.747Z,29.83
2018-06-01T16:07:34.110Z,29.74
2018-06-01T16:10:00.444Z,29.82
2018-06-01T16:12:26.811Z,29.69
2018-06-01T16:14:53.201Z,29.71
2018-06-01T16:17:19.600Z,29.71
2018-06-01T16:19:46.112Z,29.82
2018-06-01T16:22:12.451Z,29.56
2018-06-01T16:24:38.806Z,29.42
2018-06-01T16:27:05.209Z,29.49
2018-06-01T16:29:31.578Z,29.72
2018-06-01T16:31:57.946Z,29.63
2018-06-01T16:34:25.129Z,29.66
2018-06-01T16:36:51.486Z,29.60
2018-06-01T16:39:17.861Z,29.63
2018-06-01T16:41:44.236Z,29.64
2018-06-01T16:44:10.583Z,29.66
2018-06-01T16:46:36.939Z,29.61
2018-06-01T16:49:03.385Z,29.60
2018-06-01T16:51:29.766Z,29.64
2018-06-01T16:53:56.110Z,29.63
2018-06-01T16:56:22.459Z,29.64
2018-06-01T16:58:48.782Z,29.57
2018-06-01T17:01:15.109Z,29.59
2018-06-01T17:03:41.434Z,29.58
2018-06-01T17:06:07.850Z,29.58
2018-06-01T17:08:34.169Z,29.44
2018-06-01T17:11:00.500Z,29.34
2018-06-01T17:13:26.831Z,29.48
2018-06-01T17:15:53.163Z,29.48
2018-06-01T17:18:19.547Z,29.45
2018-06-01T17:20:45.887Z,29.46
2018-06-01T17:23:12.232Z,29.52
2018-06-01T17:25:38.583Z,29.43
2018-06-01T17:28:04.966Z,29.31
2018-06-01T17:30:31.325Z,29.21
2018-06-01T17:32:57.672Z,29.23
2018-06-01T17:35:24.009Z,29.25
2018-06-01T17:37:50.396Z,29.23
2018-06-01T17:40:16.770Z,28.94
2018-06-01T17:42:43.135Z,29.07
2018-06-01T17:45:10.294Z,29.05
2018-06-01T17:47:36.658Z,29.06
2018-06-01T17:50:03.118Z,29.16
2018-06-01T17:52:29.577Z,29.20
2018-06-01T17:54:55.982Z,29.10
2018-06-01T17:57:22.409Z,29.09
2018-06-01T17:59:48.815Z,29.08
2018-06-01T18:02:15.193Z,29.07
2018-06-01T18:04:41.597Z,29.09
2018-06-01T18:07:08.076Z,28.83
2018-06-01T18:09:34.416Z,28.93
2018-06-01T18:12:00.794Z,28.88
2018-06-01T18:14:27.284Z,28.74
2018-06-01T18:16:53.642Z,28.61
2018-06-01T18:19:19.987Z,28.48
2018-06-01T18:21:46.354Z,28.47
2018-06-01T18:24:12.702Z,28.39
2018-06-01T18:26:39.113Z,28.17
2018-06-01T18:29:05.496Z,27.97
2018-06-01T18:31:31.913Z,27.98
2018-06-01T18:33:58.257Z,27.91
2018-06-01T18:36:24.637Z,27.97
2018-06-01T18:38:51.021Z,27.97
2018-06-01T18:41:17.407Z,27.94
2018-06-01T18:43:43.786Z,27.53
2018-06-01T18:46:10.123Z,27.83
2018-06-01T18:48:36.466Z,27.65
2018-06-01T18:51:02.803Z,27.88
2018-06-01T18:53:29.161Z,27.79
2018-06-01T18:55:55.502Z,27.77
2018-06-01T18:58:21.965Z,27.93
2018-06-01T19:00:48.319Z,27.74
2018-06-01T19:03:14.833Z,27.84
2018-06-01T19:05:41.692Z,27.55
2018-06-01T19:08:08.214Z,27.51
2018-06-01T19:10:34.560Z,27.37
2018-06-01T19:13:00.940Z,27.43
2018-06-01T19:15:27.373Z,26.83
2018-06-01T19:17:54.546Z,27.11
2018-06-01T19:20:20.979Z,26.77
2018-06-01T19:22:47.334Z,26.86
2018-06-01T19:25:13.680Z,26.87
2018-06-01T19:27:40.042Z,26.58
2018-06-01T19:30:06.441Z,26.63
2018-06-01T19:32:32.768Z,26.49
2018-06-01T19:34:59.713Z,26.62
2018-06-01T19:37:26.091Z,26.76
2018-06-01T19:39:52.446Z,26.85
2018-06-01T19:42:18.783Z,26.85
2018-06-01T19:44:45.211Z,26.44
2018-06-01T19:47:11.574Z,26.02
2018-06-01T19:49:37.915Z,26.02
2018-06-01T19:52:04.265Z,26.18
2018-06-01T19:54:30.638Z,26.07
2018-06-01T19:56:56.967Z,25.64
2018-06-01T19:59:23.311Z,25.79
2018-06-01T20:01:49.785Z,26.05
2018-06-01T20:04:16.526Z,25.75
2018-06-01T20:06:43.093Z,26.05
2018-06-01T20:09:09.923Z,26.05
2018-06-01T20:11:36.911Z,25.76
2018-06-01T20:14:03.525Z,25.43
2018-06-01T20:16:29.887Z,25.33
2018-06-01T20:18:56.260Z,25.41
2018-06-01T20:21:22.605Z,25.44
2018-06-01T20:23:48.947Z,25.52
2018-06-01T20:26:15.282Z,25.30
2018-06-01T20:28:41.657Z,25.33
2018-06-01T20:31:08.127Z,25.44
2018-06-01T20:33:34.470Z,25.47
2018-06-01T20:36:00.804Z,25.79
2018-06-01T20:38:27.160Z,25.85
2018-06-01T20:40:53.525Z,25.25
2018-06-01T20:43:19.980Z,25.81
2018-06-01T20:45:46.356Z,25.50
2018-06-01T20:48:13.134Z,24.86
2018-06-01T20:50:39.735Z,24.93
2018-06-01T20:53:06.260Z,25.00
2018-06-01T20:55:37.532Z,24.84
2018-06-01T20:58:04.165Z,25.35
2018-06-01T21:00:30.577Z,25.55
2018-06-01T21:02:56.965Z,25.44
2018-06-01T21:05:23.374Z,25.79
2018-06-01T21:07:49.766Z,24.81
2018-06-01T21:10:16.122Z,24.99
2018-06-01T21:12:42.465Z,24.88
2018-06-01T21:15:08.813Z,24.89
2018-06-01T21:17:35.178Z,25.10
2018-06-01T21:20:01.609Z,24.86
2018-06-01T21:22:27.937Z,24.81
2018-06-01T21:24:54.322Z,25.15
2018-06-01T21:27:20.729Z,25.05
2018-06-01T21:29:47.164Z,25.02
2018-06-01T21:32:13.522Z,24.80
2018-06-01T21:34:39.857Z,24.82
2018-06-01T21:37:06.206Z,24.80
2018-06-01T21:39:32.670Z,25.00
2018-06-01T21:41:59.610Z,25.07
2018-06-01T21:44:25.941Z,24.78
2018-06-01T21:46:52.284Z,24.51
2018-06-01T21:49:18.605Z,24.81
2018-06-01T21:51:44.926Z,24.27
2018-06-01T21:54:11.265Z,23.61
2018-06-01T21:56:37.732Z,24.08
2018-06-01T21:59:04.136Z,24.45
2018-06-01T22:01:30.491Z,24.39
2018-06-01T22:03:56.844Z,24.10
2018-06-01T22:06:23.234Z,24.21
2018-06-01T22:08:49.588Z,24.68
2018-06-01T22:11:15.898Z,24.58
2018-06-01T22:13:42.230Z,24.48
2018-06-01T22:16:08.689Z,24.50
2018-06-01T22:18:35.044Z,23.96
2018-06-01T22:21:01.455Z,24.16
2018-06-01T22:23:27.805Z,23.40
2018-06-01T22:25:54.165Z,23.21
2018-06-01T22:28:20.526Z,23.64
2018-06-01T22:30:46.875Z,23.61
2018-06-01T22:33:13.218Z,23.65
2018-06-01T22:35:39.555Z,23.62
2018-06-01T22:38:05.913Z,23.96
2018-06-01T22:40:32.253Z,23.82
2018-06-01T22:42:58.592Z,23.78
2018-06-01T22:45:24.931Z,23.87
2018-06-01T22:47:51.294Z,23.77
2018-06-01T22:50:17.627Z,23.63
2018-06-01T22:52:44.026Z,23.88
2018-06-01T22:55:10.409Z,23.43
2018-06-01T22:57:36.822Z,23.22
2018-06-01T23:00:03.228Z,22.67
2018-06-01T23:02:29.503Z,22.60
2018-06-01T23:04:55.909Z,22.67
2018-06-01T23:07:22.249Z,22.59
2018-06-01T23:09:48.591Z,22.89
2018-06-01T23:12:14.948Z,22.83
2018-06-01T23:14:42.105Z,22.69
2018-06-01T23:17:08.474Z,22.48
2018-06-01T23:19:34.828Z,22.76
2018-06-01T23:22:01.153Z,22.70
2018-06-01T23:24:27.592Z,22.09
2018-06-01T23:26:53.954Z,22.20
2018-06-01T23:29:20.302Z,22.41
2018-06-01T23:31:46.658Z,22.81
2018-06-01T23:34:13.046Z,22.49
2018-06-01T23:36:39.410Z,22.45
2018-06-01T23:39:05.810Z,22.73
2018-06-01T23:41:32.218Z,22.49
2018-06-01T23:43:58.582Z,22.36
2018-06-01T23:46:24.982Z,22.29
2018-06-01T23:48:51.415Z,22.08
2018-06-01T23:51:17.782Z,21.76
2018-06-01T23:53:44.164Z,21.88
2018-06-01T23:56:10.507Z,21.67
2018-06-01T23:58:36.841Z,21.28
